sensor_id;sensor_type;location;lat;lon;timestamp;temperature;humidity
31038;DHT22;17702;47.590;7.666;2023-11-19T00:00:25;10.20;99.90
31038;DHT22;17702;47.590;7.666;2023-11-19T00:02:51;10.10;99.90
31038;DHT22;17702;47.590;7.666;2023-11-19T00:05:17;10.20;99.90
31038;DHT22;17702;47.590;7.666;2023-11-19T00:07:42;10.20;99.90
31038;DHT22;17702;47.590;7.666;2023-11-19T00:10:12;10.30;99.90
31038;DHT22;17702;47.590;7.666;2023-11-19T00:12:42;10.20;99.90
31038;DHT22;17702;47.590;7.666;2023-11-19T00:15:09;10.30;99.90
31038;DHT22;17702;47.590;7.666;2023-11-19T00:17:40;10.30;99.90
31038;DHT22;17702;47.590;7.666;2023-11-19T00:20:06;10.30;99.90
31038;DHT22;17702;47.590;7.666;2023-11-19T00:22:33;10.30;99.90
31038;DHT22;17702;47.590;7.666;2023-11-19T00:24:58;10.30;99.90
31038;DHT22;17702;47.590;7.666;2023-11-19T00:27:25;10.40;99.90
31038;DHT22;17702;47.590;7.666;2023-11-19T00:29:51;10.30;99.90
31038;DHT22;17702;47.590;7.666;2023-11-19T00:32:17;10.30;99.90
31038;DHT22;17702;47.590;7.666;2023-11-19T00:34:45;10.30;99.90
31038;DHT22;17702;47.590;7.666;2023-11-19T00:37:13;10.30;99.90
31038;DHT22;17702;47.590;7.666;2023-11-19T00:39:39;10.40;99.90
31038;DHT22;17702;47.590;7.666;2023-11-19T00:42:04;10.40;99.90
31038;DHT22;17702;47.590;7.666;2023-11-19T00:44:30;10.40;99.90
31038;DHT22;17702;47.590;7.666;2023-11-19T00:46:56;10.50;99.90
31038;DHT22;17702;47.590;7.666;2023-11-19T00:49:22;10.50;99.90
31038;DHT22;17702;47.590;7.666;2023-11-19T00:51:47;10.50;99.90
31038;DHT22;17702;47.590;7.666;2023-11-19T00:54:13;10.50;99.90
31038;DHT22;17702;47.590;7.666;2023-11-19T00:56:38;10.60;99.90
31038;DHT22;17702;47.590;7.666;2023-11-19T00:59:05;10.50;99.90
31038;DHT22;17702;47.590;7.666;2023-11-19T01:01:30;10.50;99.90
31038;DHT22;17702;47.590;7.666;2023-11-19T01:03:56;10.50;99.90
31038;DHT22;17702;47.590;7.666;2023-11-19T01:06:31;10.60;99.90
31038;DHT22;17702;47.590;7.666;2023-11-19T01:08:57;10.50;99.90
31038;DHT22;17702;47.590;7.666;2023-11-19T01:11:23;10.50;99.90
31038;DHT22;17702;47.590;7.666;2023-11-19T01:13:49;10.50;99.90
31038;DHT22;17702;47.590;7.666;2023-11-19T01:16:15;10.50;99.90
31038;DHT22;17702;47.590;7.666;2023-11-19T01:18:41;10.50;99.90
31038;DHT22;17702;47.590;7.666;2023-11-19T01:21:07;10.60;99.90
31038;DHT22;17702;47.590;7.666;2023-11-19T01:23:34;10.50;99.90
31038;DHT22;17702;47.590;7.666;2023-11-19T01:25:59;10.60;99.90
31038;DHT22;17702;47.590;7.666;2023-11-19T01:28:25;10.60;99.90
31038;DHT22;17702;47.590;7.666;2023-11-19T01:30:51;10.60;99.90
31038;DHT22;17702;47.590;7.666;2023-11-19T01:33:17;10.60;99.90
31038;DHT22;17702;47.590;7.666;2023-11-19T01:35:42;10.60;99.90
31038;DHT22;17702;47.590;7.666;2023-11-19T01:38:08;10.60;99.90
31038;DHT22;17702;47.590;7.666;2023-11-19T01:40:34;10.70;99.90
31038;DHT22;17702;47.590;7.666;2023-11-19T01:43:02;10.70;99.90
31038;DHT22;17702;47.590;7.666;2023-11-19T01:45:28;10.70;99.90
31038;DHT22;17702;47.590;7.666;2023-11-19T01:47:56;10.80;99.90
31038;DHT22;17702;47.590;7.666;2023-11-19T01:50:23;10.80;99.90
31038;DHT22;17702;47.590;7.666;2023-11-19T01:52:52;10.80;99.90
31038;DHT22;17702;47.590;7.666;2023-11-19T01:55:18;10.80;99.90
31038;DHT22;17702;47.590;7.666;2023-11-19T01:57:46;10.80;99.90
31038;DHT22;17702;47.590;7.666;2023-11-19T02:00:12;10.80;99.90
31038;DHT22;17702;47.590;7.666;2023-11-19T02:02:43;10.80;99.90
31038;DHT22;17702;47.590;7.666;2023-11-19T02:05:10;10.80;99.90
31038;DHT22;17702;47.590;7.666;2023-11-19T02:07:36;10.80;99.90
31038;DHT22;17702;47.590;7.666;2023-11-19T02:10:02;10.80;99.90
31038;DHT22;17702;47.590;7.666;2023-11-19T02:12:27;10.80;99.90
31038;DHT22;17702;47.590;7.666;2023-11-19T02:14:59;10.80;99.90
31038;DHT22;17702;47.590;7.666;2023-11-19T02:19:51;10.70;99.90
31038;DHT22;17702;47.590;7.666;2023-11-19T02:22:17;10.70;99.90
31038;DHT22;17702;47.590;7.666;2023-11-19T02:24:43;10.70;99.90
31038;DHT22;17702;47.590;7.666;2023-11-19T02:27:16;10.70;99.90
31038;DHT22;17702;47.590;7.666;2023-11-19T02:29:44;10.80;99.90
31038;DHT22;17702;47.590;7.666;2023-11-19T02:32:09;10.70;99.90
31038;DHT22;17702;47.590;7.666;2023-11-19T02:34:35;10.80;99.90
31038;DHT22;17702;47.590;7.666;2023-11-19T02:37:01;10.80;99.90
31038;DHT22;17702;47.590;7.666;2023-11-19T02:39:26;10.70;99.90
31038;DHT22;17702;47.590;7.666;2023-11-19T02:41:52;10.70;99.90
31038;DHT22;17702;47.590;7.666;2023-11-19T02:44:18;10.80;99.90
31038;DHT22;17702;47.590;7.666;2023-11-19T02:46:44;10.80;99.90
31038;DHT22;17702;47.590;7.666;2023-11-19T02:49:09;10.80;99.90
31038;DHT22;17702;47.590;7.666;2023-11-19T02:51:35;10.80;99.90
31038;DHT22;17702;47.590;7.666;2023-11-19T02:54:01;10.80;99.90
31038;DHT22;17702;47.590;7.666;2023-11-19T02:56:29;10.80;99.90
31038;DHT22;17702;47.590;7.666;2023-11-19T02:58:59;10.80;99.90
31038;DHT22;17702;47.590;7.666;2023-11-19T03:01:28;10.70;99.90
31038;DHT22;17702;47.590;7.666;2023-11-19T03:04:00;10.80;99.90
31038;DHT22;17702;47.590;7.666;2023-11-19T03:06:26;10.80;99.90
31038;DHT22;17702;47.590;7.666;2023-11-19T03:08:56;10.80;99.90
31038;DHT22;17702;47.590;7.666;2023-11-19T03:11:21;10.80;99.90
31038;DHT22;17702;47.590;7.666;2023-11-19T03:13:47;10.80;99.90
31038;DHT22;17702;47.590;7.666;2023-11-19T03:16:13;10.80;99.90
31038;DHT22;17702;47.590;7.666;2023-11-19T03:18:39;10.80;99.90
31038;DHT22;17702;47.590;7.666;2023-11-19T03:21:06;10.80;99.90
31038;DHT22;17702;47.590;7.666;2023-11-19T03:23:33;10.80;99.90
31038;DHT22;17702;47.590;7.666;2023-11-19T03:25:59;10.80;99.90
31038;DHT22;17702;47.590;7.666;2023-11-19T03:28:28;10.80;99.90
31038;DHT22;17702;47.590;7.666;2023-11-19T03:30:54;10.80;99.90
31038;DHT22;17702;47.590;7.666;2023-11-19T03:33:20;10.80;99.90
31038;DHT22;17702;47.590;7.666;2023-11-19T03:35:46;10.80;99.90
31038;DHT22;17702;47.590;7.666;2023-11-19T03:38:11;10.80;99.90
31038;DHT22;17702;47.590;7.666;2023-11-19T03:40:37;10.90;99.90
31038;DHT22;17702;47.590;7.666;2023-11-19T03:43:04;10.90;99.90
31038;DHT22;17702;47.590;7.666;2023-11-19T03:45:29;10.90;99.90
31038;DHT22;17702;47.590;7.666;2023-11-19T03:47:55;11.00;99.90
31038;DHT22;17702;47.590;7.666;2023-11-19T03:50:21;11.00;99.90
31038;DHT22;17702;47.590;7.666;2023-11-19T03:52:47;11.00;99.90
31038;DHT22;17702;47.590;7.666;2023-11-19T03:55:12;11.00;99.90
31038;DHT22;17702;47.590;7.666;2023-11-19T03:57:39;11.00;99.90
31038;DHT22;17702;47.590;7.666;2023-11-19T04:00:05;11.00;99.90
31038;DHT22;17702;47.590;7.666;2023-11-19T04:02:39;11.00;99.90
31038;DHT22;17702;47.590;7.666;2023-11-19T04:05:05;11.00;99.90
31038;DHT22;17702;47.590;7.666;2023-11-19T04:07:32;11.00;99.90
31038;DHT22;17702;47.590;7.666;2023-11-19T04:09:58;11.10;99.90
31038;DHT22;17702;47.590;7.666;2023-11-19T04:12:24;11.10;99.90
31038;DHT22;17702;47.590;7.666;2023-11-19T04:14:49;11.10;99.90
31038;DHT22;17702;47.590;7.666;2023-11-19T04:17:15;11.10;99.90
31038;DHT22;17702;47.590;7.666;2023-11-19T04:19:40;11.10;99.90
31038;DHT22;17702;47.590;7.666;2023-11-19T04:22:07;11.10;99.90
31038;DHT22;17702;47.590;7.666;2023-11-19T04:24:34;11.20;99.90
31038;DHT22;17702;47.590;7.666;2023-11-19T04:27:00;11.20;99.90
31038;DHT22;17702;47.590;7.666;2023-11-19T04:29:25;11.20;99.90
31038;DHT22;17702;47.590;7.666;2023-11-19T04:31:51;11.30;99.90
31038;DHT22;17702;47.590;7.666;2023-11-19T04:34:16;11.20;99.90
31038;DHT22;17702;47.590;7.666;2023-11-19T04:36:42;11.30;99.90
31038;DHT22;17702;47.590;7.666;2023-11-19T04:39:09;11.30;99.90
31038;DHT22;17702;47.590;7.666;2023-11-19T04:41:48;11.40;99.90
31038;DHT22;17702;47.590;7.666;2023-11-19T04:44:15;11.40;99.90
31038;DHT22;17702;47.590;7.666;2023-11-19T04:46:41;11.40;99.90
31038;DHT22;17702;47.590;7.666;2023-11-19T04:49:08;11.50;99.90
31038;DHT22;17702;47.590;7.666;2023-11-19T04:51:43;11.50;99.90
31038;DHT22;17702;47.590;7.666;2023-11-19T04:54:09;11.60;99.90
31038;DHT22;17702;47.590;7.666;2023-11-19T04:56:35;11.60;99.90
31038;DHT22;17702;47.590;7.666;2023-11-19T04:59:05;11.60;99.90
31038;DHT22;17702;47.590;7.666;2023-11-19T05:01:31;11.70;99.90
31038;DHT22;17702;47.590;7.666;2023-11-19T05:03:57;11.70;99.90
31038;DHT22;17702;47.590;7.666;2023-11-19T05:06:27;11.70;99.90
31038;DHT22;17702;47.590;7.666;2023-11-19T05:08:53;11.70;99.90
31038;DHT22;17702;47.590;7.666;2023-11-19T05:11:19;11.80;99.90
31038;DHT22;17702;47.590;7.666;2023-11-19T05:13:45;11.80;99.90
31038;DHT22;17702;47.590;7.666;2023-11-19T05:16:12;11.80;99.90
31038;DHT22;17702;47.590;7.666;2023-11-19T05:18:40;11.80;99.90
31038;DHT22;17702;47.590;7.666;2023-11-19T05:21:06;11.80;99.90
31038;DHT22;17702;47.590;7.666;2023-11-19T05:23:32;11.90;99.90
31038;DHT22;17702;47.590;7.666;2023-11-19T05:26:02;11.80;99.90
31038;DHT22;17702;47.590;7.666;2023-11-19T05:28:28;11.80;99.90
31038;DHT22;17702;47.590;7.666;2023-11-19T05:30:54;11.90;99.90
31038;DHT22;17702;47.590;7.666;2023-11-19T05:33:20;11.90;99.90
31038;DHT22;17702;47.590;7.666;2023-11-19T05:35:46;11.90;99.90
31038;DHT22;17702;47.590;7.666;2023-11-19T05:38:12;11.90;99.90
31038;DHT22;17702;47.590;7.666;2023-11-19T05:40:38;12.00;99.90
31038;DHT22;17702;47.590;7.666;2023-11-19T05:43:04;12.00;99.90
31038;DHT22;17702;47.590;7.666;2023-11-19T05:45:30;12.00;99.90
31038;DHT22;17702;47.590;7.666;2023-11-19T05:47:57;12.00;99.90
31038;DHT22;17702;47.590;7.666;2023-11-19T05:50:23;12.00;99.90
31038;DHT22;17702;47.590;7.666;2023-11-19T05:52:49;12.00;99.90
31038;DHT22;17702;47.590;7.666;2023-11-19T05:55:14;12.00;99.90
31038;DHT22;17702;47.590;7.666;2023-11-19T05:57:40;12.10;99.90
31038;DHT22;17702;47.590;7.666;2023-11-19T06:00:06;12.10;99.90
31038;DHT22;17702;47.590;7.666;2023-11-19T06:02:33;12.10;99.90
31038;DHT22;17702;47.590;7.666;2023-11-19T06:04:59;12.00;99.90
31038;DHT22;17702;47.590;7.666;2023-11-19T06:07:25;12.00;99.90
31038;DHT22;17702;47.590;7.666;2023-11-19T06:09:51;12.10;99.90
31038;DHT22;17702;47.590;7.666;2023-11-19T06:12:17;12.10;99.90
31038;DHT22;17702;47.590;7.666;2023-11-19T06:14:43;12.10;99.90
31038;DHT22;17702;47.590;7.666;2023-11-19T06:17:08;12.10;99.90
31038;DHT22;17702;47.590;7.666;2023-11-19T06:19:36;12.10;99.90
31038;DHT22;17702;47.590;7.666;2023-11-19T06:22:02;12.10;99.90
31038;DHT22;17702;47.590;7.666;2023-11-19T06:24:27;12.20;99.90
31038;DHT22;17702;47.590;7.666;2023-11-19T06:26:53;12.10;99.90
31038;DHT22;17702;47.590;7.666;2023-11-19T06:29:19;12.20;99.90
31038;DHT22;17702;47.590;7.666;2023-11-19T06:31:45;12.20;99.90
31038;DHT22;17702;47.590;7.666;2023-11-19T06:34:11;12.20;99.90
31038;DHT22;17702;47.590;7.666;2023-11-19T06:36:36;12.20;99.90
31038;DHT22;17702;47.590;7.666;2023-11-19T06:39:02;12.20;99.90
31038;DHT22;17702;47.590;7.666;2023-11-19T06:41:29;12.20;99.90
31038;DHT22;17702;47.590;7.666;2023-11-19T06:43:54;12.30;99.90
31038;DHT22;17702;47.590;7.666;2023-11-19T06:46:20;12.30;99.90
31038;DHT22;17702;47.590;7.666;2023-11-19T06:48:46;12.30;99.90
31038;DHT22;17702;47.590;7.666;2023-11-19T06:51:12;12.30;99.90
31038;DHT22;17702;47.590;7.666;2023-11-19T06:53:38;12.40;99.90
31038;DHT22;17702;47.590;7.666;2023-11-19T06:56:06;12.40;99.90
31038;DHT22;17702;47.590;7.666;2023-11-19T06:58:32;12.40;99.90
31038;DHT22;17702;47.590;7.666;2023-11-19T07:01:01;12.40;99.90
31038;DHT22;17702;47.590;7.666;2023-11-19T07:03:26;12.50;99.90
31038;DHT22;17702;47.590;7.666;2023-11-19T07:05:52;12.50;99.90
31038;DHT22;17702;47.590;7.666;2023-11-19T07:08:17;12.50;99.90
31038;DHT22;17702;47.590;7.666;2023-11-19T07:10:43;12.50;99.90
31038;DHT22;17702;47.590;7.666;2023-11-19T07:13:08;12.50;99.90
31038;DHT22;17702;47.590;7.666;2023-11-19T07:15:35;12.50;99.90
31038;DHT22;17702;47.590;7.666;2023-11-19T07:18:00;12.50;99.90
31038;DHT22;17702;47.590;7.666;2023-11-19T07:20:26;12.50;99.90
31038;DHT22;17702;47.590;7.666;2023-11-19T07:22:52;12.50;99.90
31038;DHT22;17702;47.590;7.666;2023-11-19T07:25:17;12.50;99.90
31038;DHT22;17702;47.590;7.666;2023-11-19T07:27:43;12.60;99.90
31038;DHT22;17702;47.590;7.666;2023-11-19T07:30:09;12.60;99.90
31038;DHT22;17702;47.590;7.666;2023-11-19T07:32:34;12.60;99.90
31038;DHT22;17702;47.590;7.666;2023-11-19T07:35:00;12.60;99.90
31038;DHT22;17702;47.590;7.666;2023-11-19T07:37:26;12.60;99.90
31038;DHT22;17702;47.590;7.666;2023-11-19T07:39:51;12.70;99.90
31038;DHT22;17702;47.590;7.666;2023-11-19T07:42:17;12.70;99.90
31038;DHT22;17702;47.590;7.666;2023-11-19T07:44:45;12.70;99.90
31038;DHT22;17702;47.590;7.666;2023-11-19T07:47:11;12.70;99.90
31038;DHT22;17702;47.590;7.666;2023-11-19T07:49:38;12.70;99.90
31038;DHT22;17702;47.590;7.666;2023-11-19T07:52:04;12.80;99.90
31038;DHT22;17702;47.590;7.666;2023-11-19T07:54:29;12.70;99.90
31038;DHT22;17702;47.590;7.666;2023-11-19T07:56:55;12.70;99.90
31038;DHT22;17702;47.590;7.666;2023-11-19T07:59:21;12.70;99.90
31038;DHT22;17702;47.590;7.666;2023-11-19T08:01:47;12.80;99.90
31038;DHT22;17702;47.590;7.666;2023-11-19T08:04:13;12.80;99.90
31038;DHT22;17702;47.590;7.666;2023-11-19T08:06:39;12.80;99.90
31038;DHT22;17702;47.590;7.666;2023-11-19T08:09:05;12.80;99.90
31038;DHT22;17702;47.590;7.666;2023-11-19T08:11:31;12.90;99.90
31038;DHT22;17702;47.590;7.666;2023-11-19T08:13:56;12.90;99.90
31038;DHT22;17702;47.590;7.666;2023-11-19T08:16:22;12.90;99.90
31038;DHT22;17702;47.590;7.666;2023-11-19T08:18:47;12.90;99.90
31038;DHT22;17702;47.590;7.666;2023-11-19T08:21:13;13.00;99.90
31038;DHT22;17702;47.590;7.666;2023-11-19T08:23:39;13.00;99.90
31038;DHT22;17702;47.590;7.666;2023-11-19T08:26:05;13.00;99.90
31038;DHT22;17702;47.590;7.666;2023-11-19T08:28:31;13.10;99.90
31038;DHT22;17702;47.590;7.666;2023-11-19T08:30:56;13.10;99.90
31038;DHT22;17702;47.590;7.666;2023-11-19T08:33:22;13.10;99.90
31038;DHT22;17702;47.590;7.666;2023-11-19T08:35:48;13.20;99.90
31038;DHT22;17702;47.590;7.666;2023-11-19T08:38:13;13.20;99.90
31038;DHT22;17702;47.590;7.666;2023-11-19T08:40:39;13.20;99.90
31038;DHT22;17702;47.590;7.666;2023-11-19T08:43:05;13.30;99.90
31038;DHT22;17702;47.590;7.666;2023-11-19T08:45:31;13.30;99.90
31038;DHT22;17702;47.590;7.666;2023-11-19T08:47:57;13.30;99.90
31038;DHT22;17702;47.590;7.666;2023-11-19T08:50:22;13.30;99.90
31038;DHT22;17702;47.590;7.666;2023-11-19T08:52:49;13.40;99.90
31038;DHT22;17702;47.590;7.666;2023-11-19T08:55:14;13.50;99.90
31038;DHT22;17702;47.590;7.666;2023-11-19T08:57:40;13.50;99.90
31038;DHT22;17702;47.590;7.666;2023-11-19T09:00:06;13.50;99.90
31038;DHT22;17702;47.590;7.666;2023-11-19T09:02:35;13.50;99.90
31038;DHT22;17702;47.590;7.666;2023-11-19T09:05:02;13.60;99.90
31038;DHT22;17702;47.590;7.666;2023-11-19T09:07:28;13.60;99.90
31038;DHT22;17702;47.590;7.666;2023-11-19T09:09:54;13.60;99.90
31038;DHT22;17702;47.590;7.666;2023-11-19T09:12:19;13.70;99.90
31038;DHT22;17702;47.590;7.666;2023-11-19T09:14:45;13.70;99.90
31038;DHT22;17702;47.590;7.666;2023-11-19T09:17:11;13.70;99.90
31038;DHT22;17702;47.590;7.666;2023-11-19T09:19:37;13.70;99.90
31038;DHT22;17702;47.590;7.666;2023-11-19T09:22:02;13.70;99.90
31038;DHT22;17702;47.590;7.666;2023-11-19T09:24:28;13.70;99.90
31038;DHT22;17702;47.590;7.666;2023-11-19T09:26:53;13.70;99.90
31038;DHT22;17702;47.590;7.666;2023-11-19T09:29:20;13.80;99.90
31038;DHT22;17702;47.590;7.666;2023-11-19T09:31:46;13.80;99.90
31038;DHT22;17702;47.590;7.666;2023-11-19T09:34:12;13.80;99.90
31038;DHT22;17702;47.590;7.666;2023-11-19T09:36:38;13.90;99.90
31038;DHT22;17702;47.590;7.666;2023-11-19T09:39:04;13.80;99.90
31038;DHT22;17702;47.590;7.666;2023-11-19T09:41:31;13.80;99.90
31038;DHT22;17702;47.590;7.666;2023-11-19T09:43:57;13.70;99.90
31038;DHT22;17702;47.590;7.666;2023-11-19T09:46:23;13.70;99.90
31038;DHT22;17702;47.590;7.666;2023-11-19T09:48:53;13.70;99.90
31038;DHT22;17702;47.590;7.666;2023-11-19T09:51:20;13.70;99.90
31038;DHT22;17702;47.590;7.666;2023-11-19T09:53:45;13.70;99.90
31038;DHT22;17702;47.590;7.666;2023-11-19T09:56:12;13.60;99.90
31038;DHT22;17702;47.590;7.666;2023-11-19T09:58:38;13.70;99.90
31038;DHT22;17702;47.590;7.666;2023-11-19T10:01:04;13.70;99.90
31038;DHT22;17702;47.590;7.666;2023-11-19T10:03:34;13.70;99.90
31038;DHT22;17702;47.590;7.666;2023-11-19T10:06:06;13.80;99.90
31038;DHT22;17702;47.590;7.666;2023-11-19T10:08:33;13.80;99.90
31038;DHT22;17702;47.590;7.666;2023-11-19T10:10:59;13.80;99.90
31038;DHT22;17702;47.590;7.666;2023-11-19T10:13:31;13.80;99.90
31038;DHT22;17702;47.590;7.666;2023-11-19T10:15:56;13.80;99.90
31038;DHT22;17702;47.590;7.666;2023-11-19T10:18:28;13.80;99.90
31038;DHT22;17702;47.590;7.666;2023-11-19T10:20:54;13.90;99.90
31038;DHT22;17702;47.590;7.666;2023-11-19T10:23:21;13.80;99.90
31038;DHT22;17702;47.590;7.666;2023-11-19T10:25:46;13.90;99.90
31038;DHT22;17702;47.590;7.666;2023-11-19T10:28:15;13.80;99.90
31038;DHT22;17702;47.590;7.666;2023-11-19T10:30:41;13.80;99.90
31038;DHT22;17702;47.590;7.666;2023-11-19T10:33:12;13.90;99.90
31038;DHT22;17702;47.590;7.666;2023-11-19T10:35:56;13.80;99.90
31038;DHT22;17702;47.590;7.666;2023-11-19T10:38:28;13.90;99.90
31038;DHT22;17702;47.590;7.666;2023-11-19T10:40:54;13.90;99.90
31038;DHT22;17702;47.590;7.666;2023-11-19T10:43:20;13.90;99.90
31038;DHT22;17702;47.590;7.666;2023-11-19T10:45:49;13.90;99.90
31038;DHT22;17702;47.590;7.666;2023-11-19T10:48:15;13.90;99.90
31038;DHT22;17702;47.590;7.666;2023-11-19T10:50:42;13.90;99.90
31038;DHT22;17702;47.590;7.666;2023-11-19T10:53:10;13.90;99.90
31038;DHT22;17702;47.590;7.666;2023-11-19T10:55:37;13.90;99.90
31038;DHT22;17702;47.590;7.666;2023-11-19T10:58:07;14.00;99.90
31038;DHT22;17702;47.590;7.666;2023-11-19T11:00:48;13.90;99.90
31038;DHT22;17702;47.590;7.666;2023-11-19T11:03:20;13.90;99.90
31038;DHT22;17702;47.590;7.666;2023-11-19T11:05:47;13.90;99.90
31038;DHT22;17702;47.590;7.666;2023-11-19T11:08:13;13.90;99.90
31038;DHT22;17702;47.590;7.666;2023-11-19T11:10:53;13.80;99.90
31038;DHT22;17702;47.590;7.666;2023-11-19T11:13:22;13.80;99.90
31038;DHT22;17702;47.590;7.666;2023-11-19T11:15:50;13.80;99.90
31038;DHT22;17702;47.590;7.666;2023-11-19T11:18:16;13.90;99.90
31038;DHT22;17702;47.590;7.666;2023-11-19T11:20:44;13.90;99.90
31038;DHT22;17702;47.590;7.666;2023-11-19T11:31:58;14.00;99.90
31038;DHT22;17702;47.590;7.666;2023-11-19T11:34:54;14.00;99.90
31038;DHT22;17702;47.590;7.666;2023-11-19T11:37:33;14.00;99.90
31038;DHT22;17702;47.590;7.666;2023-11-19T11:40:01;14.00;99.90
31038;DHT22;17702;47.590;7.666;2023-11-19T11:42:34;14.00;99.90
31038;DHT22;17702;47.590;7.666;2023-11-19T11:45:07;14.00;99.90
31038;DHT22;17702;47.590;7.666;2023-11-19T11:50:22;14.00;99.90
31038;DHT22;17702;47.590;7.666;2023-11-19T11:55:35;14.00;99.90
31038;DHT22;17702;47.590;7.666;2023-11-19T11:58:07;14.00;99.90
31038;DHT22;17702;47.590;7.666;2023-11-19T12:00:38;14.10;99.90
31038;DHT22;17702;47.590;7.666;2023-11-19T12:03:05;14.10;99.90
31038;DHT22;17702;47.590;7.666;2023-11-19T12:05:32;14.00;99.90
31038;DHT22;17702;47.590;7.666;2023-11-19T12:08:06;14.00;99.90
31038;DHT22;17702;47.590;7.666;2023-11-19T12:10:56;14.00;99.90
31038;DHT22;17702;47.590;7.666;2023-11-19T12:13:29;14.20;99.90
31038;DHT22;17702;47.590;7.666;2023-11-19T12:16:08;14.20;99.90
31038;DHT22;17702;47.590;7.666;2023-11-19T12:18:34;14.20;99.90
31038;DHT22;17702;47.590;7.666;2023-11-19T12:21:01;14.30;99.90
31038;DHT22;17702;47.590;7.666;2023-11-19T12:23:28;14.30;99.90
31038;DHT22;17702;47.590;7.666;2023-11-19T12:25:54;14.30;99.90
31038;DHT22;17702;47.590;7.666;2023-11-19T12:28:20;14.30;99.90
31038;DHT22;17702;47.590;7.666;2023-11-19T12:30:46;14.30;99.90
31038;DHT22;17702;47.590;7.666;2023-11-19T12:33:14;14.20;99.90
31038;DHT22;17702;47.590;7.666;2023-11-19T12:35:44;14.20;99.90
31038;DHT22;17702;47.590;7.666;2023-11-19T12:38:20;14.20;99.90
31038;DHT22;17702;47.590;7.666;2023-11-19T12:41:08;14.30;99.90
31038;DHT22;17702;47.590;7.666;2023-11-19T12:43:37;14.40;99.90
31038;DHT22;17702;47.590;7.666;2023-11-19T12:46:16;14.40;99.90
31038;DHT22;17702;47.590;7.666;2023-11-19T12:48:42;14.40;99.90
31038;DHT22;17702;47.590;7.666;2023-11-19T12:51:07;14.40;99.90
31038;DHT22;17702;47.590;7.666;2023-11-19T12:53:50;14.40;99.90
31038;DHT22;17702;47.590;7.666;2023-11-19T12:56:19;14.40;99.90
31038;DHT22;17702;47.590;7.666;2023-11-19T12:58:45;14.40;99.90
31038;DHT22;17702;47.590;7.666;2023-11-19T13:01:16;14.40;99.90
31038;DHT22;17702;47.590;7.666;2023-11-19T13:03:42;14.40;99.90
31038;DHT22;17702;47.590;7.666;2023-11-19T13:06:09;14.40;99.90
31038;DHT22;17702;47.590;7.666;2023-11-19T13:08:41;14.40;99.90
31038;DHT22;17702;47.590;7.666;2023-11-19T13:11:08;14.40;99.90
31038;DHT22;17702;47.590;7.666;2023-11-19T13:13:54;14.50;99.90
31038;DHT22;17702;47.590;7.666;2023-11-19T13:16:20;14.50;99.90
31038;DHT22;17702;47.590;7.666;2023-11-19T13:18:45;14.50;99.90
31038;DHT22;17702;47.590;7.666;2023-11-19T13:21:11;14.50;99.90
31038;DHT22;17702;47.590;7.666;2023-11-19T13:23:36;14.60;99.90
31038;DHT22;17702;47.590;7.666;2023-11-19T13:26:02;14.70;99.90
31038;DHT22;17702;47.590;7.666;2023-11-19T13:28:32;14.80;99.90
31038;DHT22;17702;47.590;7.666;2023-11-19T13:30:57;14.70;99.90
31038;DHT22;17702;47.590;7.666;2023-11-19T13:33:23;14.70;99.90
31038;DHT22;17702;47.590;7.666;2023-11-19T13:35:49;14.60;99.90
31038;DHT22;17702;47.590;7.666;2023-11-19T13:38:14;14.60;99.90
31038;DHT22;17702;47.590;7.666;2023-11-19T13:40:40;14.50;99.90
31038;DHT22;17702;47.590;7.666;2023-11-19T13:43:05;14.50;99.90
31038;DHT22;17702;47.590;7.666;2023-11-19T13:45:31;14.40;99.90
31038;DHT22;17702;47.590;7.666;2023-11-19T13:47:56;14.50;99.90
31038;DHT22;17702;47.590;7.666;2023-11-19T13:50:22;14.50;99.90
31038;DHT22;17702;47.590;7.666;2023-11-19T13:52:48;14.40;99.90
31038;DHT22;17702;47.590;7.666;2023-11-19T13:55:14;14.40;99.90
31038;DHT22;17702;47.590;7.666;2023-11-19T13:57:41;14.40;99.90
31038;DHT22;17702;47.590;7.666;2023-11-19T14:00:11;14.30;99.90
31038;DHT22;17702;47.590;7.666;2023-11-19T14:02:48;14.30;99.90
31038;DHT22;17702;47.590;7.666;2023-11-19T14:05:14;14.30;99.90
31038;DHT22;17702;47.590;7.666;2023-11-19T14:07:43;14.30;99.90
31038;DHT22;17702;47.590;7.666;2023-11-19T14:10:09;14.30;99.90
31038;DHT22;17702;47.590;7.666;2023-11-19T14:12:39;14.30;99.90
31038;DHT22;17702;47.590;7.666;2023-11-19T14:15:06;14.30;99.90
31038;DHT22;17702;47.590;7.666;2023-11-19T14:17:33;14.30;99.90
31038;DHT22;17702;47.590;7.666;2023-11-19T14:19:59;14.30;99.90
31038;DHT22;17702;47.590;7.666;2023-11-19T14:22:25;14.30;99.90
31038;DHT22;17702;47.590;7.666;2023-11-19T14:24:51;14.30;99.90
31038;DHT22;17702;47.590;7.666;2023-11-19T14:27:16;14.30;99.90
31038;DHT22;17702;47.590;7.666;2023-11-19T14:29:45;14.40;99.90
31038;DHT22;17702;47.590;7.666;2023-11-19T14:32:11;14.40;99.90
31038;DHT22;17702;47.590;7.666;2023-11-19T14:34:37;14.40;99.90
31038;DHT22;17702;47.590;7.666;2023-11-19T14:37:02;14.40;99.90
31038;DHT22;17702;47.590;7.666;2023-11-19T14:39:28;14.40;99.90
31038;DHT22;17702;47.590;7.666;2023-11-19T14:41:57;14.40;99.90
31038;DHT22;17702;47.590;7.666;2023-11-19T14:44:29;14.40;99.90
31038;DHT22;17702;47.590;7.666;2023-11-19T14:46:55;14.40;99.90
31038;DHT22;17702;47.590;7.666;2023-11-19T14:49:20;14.40;99.90
31038;DHT22;17702;47.590;7.666;2023-11-19T14:51:46;14.30;99.90
31038;DHT22;17702;47.590;7.666;2023-11-19T14:54:11;14.30;99.90
31038;DHT22;17702;47.590;7.666;2023-11-19T14:56:40;14.30;99.90
31038;DHT22;17702;47.590;7.666;2023-11-19T14:59:05;14.30;99.90
31038;DHT22;17702;47.590;7.666;2023-11-19T15:01:31;14.30;99.90
31038;DHT22;17702;47.590;7.666;2023-11-19T15:03:56;14.20;99.90
31038;DHT22;17702;47.590;7.666;2023-11-19T15:06:25;14.20;99.90
31038;DHT22;17702;47.590;7.666;2023-11-19T15:08:56;14.20;99.90
31038;DHT22;17702;47.590;7.666;2023-11-19T15:11:22;14.20;99.90
31038;DHT22;17702;47.590;7.666;2023-11-19T15:13:48;14.20;99.90
31038;DHT22;17702;47.590;7.666;2023-11-19T15:16:14;14.20;99.90
31038;DHT22;17702;47.590;7.666;2023-11-19T15:18:42;14.20;99.90
31038;DHT22;17702;47.590;7.666;2023-11-19T15:21:08;14.20;99.90
31038;DHT22;17702;47.590;7.666;2023-11-19T15:23:34;14.20;99.90
31038;DHT22;17702;47.590;7.666;2023-11-19T15:25:59;14.10;99.90
31038;DHT22;17702;47.590;7.666;2023-11-19T15:28:25;14.10;99.90
31038;DHT22;17702;47.590;7.666;2023-11-19T15:30:50;14.20;99.90
31038;DHT22;17702;47.590;7.666;2023-11-19T15:33:16;14.20;99.90
31038;DHT22;17702;47.590;7.666;2023-11-19T15:35:41;14.20;99.90
31038;DHT22;17702;47.590;7.666;2023-11-19T15:38:07;14.20;99.90
31038;DHT22;17702;47.590;7.666;2023-11-19T15:40:35;14.30;99.90
31038;DHT22;17702;47.590;7.666;2023-11-19T15:43:01;14.30;99.90
31038;DHT22;17702;47.590;7.666;2023-11-19T15:45:27;14.30;99.90